createdAt,value
2018-08-13T09:02:52.749Z,5.10
2018-08-13T09:05:21.427Z,5.13
2018-08-13T09:07:49.989Z,5.03
2018-08-13T09:10:21.298Z,5.03
2018-08-13T09:12:49.943Z,5.27
2018-08-13T09:15:18.679Z,5.43
2018-08-13T09:17:59.143Z,4.70
2018-08-13T09:20:38.909Z,5.37
2018-08-13T09:23:18.456Z,5.50
2018-08-13T09:25:58.191Z,4.90
2018-08-13T09:28:37.979Z,5.50
2018-08-13T09:31:18.899Z,4.70
2018-08-13T09:33:58.487Z,4.77
2018-08-13T09:36:27.083Z,4.57
2018-08-13T09:38:55.661Z,4.60
2018-08-13T09:41:24.455Z,5.40
2018-08-13T09:43:53.013Z,4.63
2018-08-13T09:46:21.748Z,4.20
2018-08-13T09:48:50.322Z,4.70
2018-08-13T09:51:19.204Z,4.20
2018-08-13T09:53:48.689Z,5.03
2018-08-13T09:56:18.257Z,4.43
2018-08-13T09:58:46.816Z,4.80
2018-08-13T10:01:15.432Z,4.77
2018-08-13T10:03:43.964Z,4.80
2018-08-13T10:06:12.553Z,4.10
2018-08-13T10:08:41.264Z,4.53
2018-08-13T10:11:09.838Z,4.20
2018-08-13T10:13:38.419Z,4.70
2018-08-13T10:16:06.965Z,4.37
2018-08-13T10:18:35.532Z,4.63
2018-08-13T10:21:04.140Z,4.40
2018-08-13T10:23:33.011Z,5.17
2018-08-13T10:26:01.551Z,4.77
2018-08-13T10:28:30.243Z,4.03
2018-08-13T10:30:59.669Z,3.80
2018-08-13T10:33:28.204Z,3.87
2018-08-13T10:35:56.840Z,4.00
2018-08-13T10:41:17.358Z,4.10
2018-08-13T10:43:46.056Z,3.93
2018-08-13T10:46:14.949Z,3.90
2018-08-13T10:48:43.535Z,3.50
2018-08-13T10:51:12.149Z,4.20
2018-08-13T10:53:40.727Z,3.70
2018-08-13T10:56:10.325Z,3.90
2018-08-13T10:58:38.925Z,4.20
2018-08-13T11:01:11.245Z,3.40
2018-08-13T11:03:39.962Z,3.73
2018-08-13T11:06:08.695Z,4.10
2018-08-13T11:08:37.574Z,3.40
2018-08-13T11:11:06.248Z,4.00
2018-08-13T11:13:41.109Z,4.03
2018-08-13T11:16:09.861Z,4.30
2018-08-13T11:18:38.400Z,4.10
2018-08-13T11:21:06.986Z,3.83
2018-08-13T11:23:35.666Z,3.80
2018-08-13T11:26:04.360Z,3.90
2018-08-13T11:28:32.951Z,3.67
2018-08-13T11:31:01.600Z,3.67
2018-08-13T11:33:30.392Z,4.03
2018-08-13T11:35:59.024Z,4.57
2018-08-13T11:38:27.576Z,3.57
2018-08-13T11:40:56.372Z,3.33
2018-08-13T11:43:24.938Z,4.10
2018-08-13T11:45:53.507Z,3.33
2018-08-13T11:48:22.108Z,3.80
2018-08-13T11:50:50.688Z,3.30
2018-08-13T11:53:19.281Z,4.00
2018-08-13T11:55:47.840Z,4.00
2018-08-13T11:58:16.375Z,3.70
2018-08-13T12:00:44.989Z,3.17
2018-08-13T12:03:13.612Z,3.50
2018-08-13T12:05:42.219Z,2.70
2018-08-13T12:08:10.811Z,3.23
2018-08-13T12:10:39.400Z,3.23
2018-08-13T12:13:08.191Z,3.30
2018-08-13T12:15:36.793Z,2.80
2018-08-13T12:18:06.384Z,3.03
2018-08-13T12:20:35.044Z,2.87
2018-08-13T12:23:03.674Z,3.77
2018-08-13T12:25:32.898Z,3.50
2018-08-13T12:28:01.552Z,3.30
2018-08-13T12:30:30.191Z,2.80
2018-08-13T12:32:58.855Z,3.17
2018-08-13T12:35:27.478Z,3.40
2018-08-13T12:37:56.019Z,3.40
2018-08-13T12:40:25.215Z,3.30
2018-08-13T12:42:53.847Z,3.30
2018-08-13T12:45:22.605Z,3.20
2018-08-13T12:47:51.258Z,3.30
2018-08-13T12:50:21.078Z,3.30
2018-08-13T12:52:50.888Z,2.80
2018-08-13T12:55:19.577Z,3.50
2018-08-13T12:57:48.647Z,3.30
2018-08-13T13:00:18.478Z,3.47
2018-08-13T13:02:47.130Z,2.73
2018-08-13T13:05:17.163Z,3.13
2018-08-13T13:07:45.955Z,3.00
2018-08-13T13:10:15.909Z,3.13
2018-08-13T13:12:44.900Z,3.60
2018-08-13T13:15:15.206Z,3.67
2018-08-13T13:17:43.812Z,3.00
2018-08-13T13:20:16.847Z,3.57
2018-08-13T13:22:45.628Z,3.37
2018-08-13T13:25:15.485Z,3.20
2018-08-13T13:27:44.984Z,3.23
2018-08-13T13:30:15.289Z,3.03
2018-08-13T13:32:44.664Z,3.13
2018-08-13T13:35:15.260Z,3.30
2018-08-13T13:37:44.418Z,3.00
2018-08-13T13:40:15.512Z,3.50
2018-08-13T13:42:44.288Z,3.00
2018-08-13T13:45:13.850Z,3.90
2018-08-13T13:47:42.395Z,2.83
2018-08-13T13:50:13.473Z,3.00
2018-08-13T13:52:42.241Z,3.70
2018-08-13T13:55:10.862Z,3.50
2018-08-13T13:57:39.476Z,4.10
2018-08-13T14:00:17.304Z,3.30
2018-08-13T14:02:47.240Z,3.47
2018-08-13T14:05:15.885Z,4.00
2018-08-13T14:07:44.687Z,3.40
2018-08-13T14:10:15.443Z,3.53
2018-08-13T14:12:44.748Z,3.67
2018-08-13T14:15:14.854Z,3.77
2018-08-13T14:17:43.949Z,2.90
2018-08-13T14:20:12.568Z,3.80
2018-08-13T14:22:41.271Z,2.90
2018-08-13T14:25:11.769Z,4.00
2018-08-13T14:27:40.732Z,3.30
2018-08-13T14:30:26.223Z,3.57
2018-08-13T14:32:54.872Z,3.43
2018-08-13T14:35:24.731Z,3.50
2018-08-13T14:37:53.473Z,3.43
2018-08-13T14:40:22.101Z,3.67
2018-08-13T14:42:50.667Z,3.80
2018-08-13T14:45:19.887Z,3.67
2018-08-13T14:47:50.095Z,3.10
2018-08-13T14:50:18.772Z,3.87
2018-08-13T14:52:48.337Z,3.57
2018-08-13T14:55:21.214Z,3.67
2018-08-13T14:57:49.890Z,4.30
2018-08-13T15:00:26.885Z,3.10
2018-08-13T15:02:56.088Z,4.30
2018-08-13T15:05:24.702Z,4.17
2018-08-13T15:07:53.290Z,3.60
2018-08-13T15:10:23.365Z,3.73
2018-08-13T15:12:52.042Z,3.80
2018-08-13T15:15:20.596Z,3.63
2018-08-13T15:17:49.712Z,4.50
2018-08-13T15:20:21.737Z,4.17
2018-08-13T15:22:50.359Z,4.70
2018-08-13T15:25:18.907Z,3.90
2018-08-13T15:27:47.574Z,3.07
2018-08-13T15:30:17.256Z,4.47
2018-08-13T15:32:47.050Z,4.77
2018-08-13T15:35:15.649Z,4.67
2018-08-13T15:37:44.946Z,4.70
2018-08-13T15:40:13.635Z,3.97
2018-08-13T15:42:42.238Z,4.33
2018-08-13T15:45:19.596Z,5.23
2018-08-13T15:47:48.953Z,4.70
2018-08-13T15:50:18.723Z,4.70
2018-08-13T15:52:47.948Z,4.53
2018-08-13T15:55:16.709Z,3.80
2018-08-13T15:57:45.784Z,5.20
2018-08-13T16:00:20.948Z,4.57
2018-08-13T16:02:50.036Z,4.40
2018-08-13T16:05:19.040Z,5.00
2018-08-13T16:07:48.249Z,4.60
2018-08-13T16:10:17.601Z,5.13
2018-08-13T16:12:46.663Z,5.00
2018-08-13T16:15:15.388Z,4.70
2018-08-13T16:20:48.817Z,5.10
2018-08-13T16:23:17.426Z,5.00
2018-08-13T16:25:46.015Z,5.30
2018-08-13T16:28:14.608Z,4.83
2018-08-13T16:30:43.151Z,5.20
2018-08-13T16:33:11.732Z,4.80
2018-08-13T16:35:40.309Z,6.10
2018-08-13T16:38:08.868Z,5.27
2018-08-13T16:40:37.449Z,5.30
2018-08-13T16:43:06.324Z,5.87
2018-08-13T16:45:34.879Z,5.80
2018-08-13T16:48:03.483Z,5.43
2018-08-13T16:50:33.576Z,4.43
2018-08-13T16:53:02.679Z,4.93
2018-08-13T16:55:32.583Z,5.07
2018-08-13T16:58:02.823Z,4.87
2018-08-13T17:00:32.333Z,6.20
2018-08-13T17:03:01.504Z,6.23
2018-08-13T17:05:32.017Z,5.67
2018-08-13T17:08:00.661Z,6.50
2018-08-13T17:10:29.907Z,5.70
2018-08-13T17:12:59.331Z,6.67
2018-08-13T17:15:29.309Z,6.73
2018-08-13T17:17:59.011Z,5.17
2018-08-13T17:20:31.766Z,5.70
2018-08-13T17:23:00.431Z,4.73
2018-08-13T17:25:29.071Z,6.20
2018-08-13T17:27:57.669Z,6.43
2018-08-13T17:30:26.988Z,6.07
2018-08-13T17:32:57.190Z,6.17
2018-08-13T17:35:28.775Z,6.10
2018-08-13T17:37:57.465Z,5.87
2018-08-13T17:40:26.364Z,5.40
2018-08-13T17:42:55.878Z,6.40
2018-08-13T17:45:25.654Z,5.40
2018-08-13T17:47:54.245Z,6.47
2018-08-13T17:50:23.436Z,5.83
2018-08-13T17:52:52.108Z,5.00
2018-08-13T17:55:20.791Z,5.77
2018-08-13T17:57:49.460Z,6.00
2018-08-13T18:00:22.751Z,5.93
2018-08-13T18:02:51.300Z,5.90
2018-08-13T18:05:24.424Z,6.40
2018-08-13T18:07:53.928Z,6.87
2018-08-13T18:10:27.060Z,6.63
2018-08-13T18:12:56.356Z,6.47
2018-08-13T18:15:24.985Z,5.87
2018-08-13T18:17:53.607Z,6.30
2018-08-13T18:20:22.239Z,5.43
2018-08-13T18:22:50.840Z,6.30
2018-08-13T18:25:19.513Z,5.70
2018-08-13T18:27:49.441Z,6.27
2018-08-13T18:30:21.112Z,6.37
2018-08-13T18:32:49.811Z,6.30
2018-08-13T18:35:18.620Z,6.57
2018-08-13T18:37:47.416Z,6.20
2018-08-13T18:40:22.317Z,5.77
2018-08-13T18:42:50.999Z,5.77
2018-08-13T18:45:19.609Z,5.93
2018-08-13T18:47:48.999Z,6.10
2018-08-13T18:50:18.713Z,6.37
2018-08-13T18:52:47.492Z,5.53
2018-08-13T18:55:17.529Z,5.97
2018-08-13T18:57:46.567Z,6.20
2018-08-13T19:00:18.641Z,6.77
2018-08-13T19:02:47.241Z,6.33
2018-08-13T19:05:17.519Z,6.90
2018-08-13T19:07:46.823Z,5.70
2018-08-13T19:10:16.308Z,6.40
2018-08-13T19:12:44.913Z,6.53
2018-08-13T19:15:16.463Z,6.97
2018-08-13T19:17:45.071Z,7.17
2018-08-13T19:20:14.558Z,6.40
2018-08-13T19:22:43.668Z,7.03
2018-08-13T19:25:14.185Z,6.70
2018-08-13T19:27:42.994Z,6.70
2018-08-13T19:30:13.367Z,6.10
2018-08-13T19:32:41.952Z,4.90
2018-08-13T19:35:10.976Z,5.17
2018-08-13T19:37:40.203Z,5.20
2018-08-13T19:40:13.136Z,4.73
2018-08-13T19:42:41.882Z,3.77
2018-08-13T19:45:11.864Z,4.10
2018-08-13T19:47:40.687Z,4.57
2018-08-13T19:50:10.551Z,4.47
2018-08-13T19:52:40.175Z,4.97
2018-08-13T19:55:09.371Z,4.20
2018-08-13T19:57:37.984Z,4.20
2018-08-13T20:00:11.480Z,5.80
2018-08-13T20:02:40.101Z,3.90
2018-08-13T20:05:09.436Z,3.73
2018-08-13T20:07:38.819Z,3.93
2018-08-13T20:10:09.236Z,4.63
2018-08-13T20:12:38.855Z,3.87
2018-08-13T20:15:07.463Z,3.70
2018-08-13T20:17:36.081Z,3.97
2018-08-13T20:20:05.652Z,4.77
2018-08-13T20:22:34.272Z,4.00
2018-08-13T20:25:02.857Z,4.27
2018-08-13T20:27:31.406Z,5.40
2018-08-13T20:30:00.104Z,4.50
2018-08-13T20:32:28.822Z,4.00
2018-08-13T20:34:57.426Z,3.70
2018-08-13T20:37:26.004Z,3.90
2018-08-13T20:39:54.595Z,4.33
2018-08-13T20:42:23.201Z,4.53
2018-08-13T20:44:51.775Z,4.50
2018-08-13T20:47:20.656Z,4.07
2018-08-13T20:49:49.264Z,4.17
2018-08-13T20:55:36.339Z,3.87
2018-08-13T20:58:05.037Z,3.70
2018-08-13T21:00:33.633Z,3.73
2018-08-13T21:03:02.272Z,3.60
2018-08-13T21:05:30.843Z,4.00
2018-08-13T21:07:59.551Z,6.53
2018-08-13T21:10:28.239Z,3.40
2018-08-13T21:12:56.813Z,2.77
2018-08-13T21:15:25.390Z,3.43
2018-08-13T21:17:53.992Z,3.73
2018-08-13T21:20:25.831Z,3.30
2018-08-13T21:22:54.926Z,3.60
2018-08-13T21:25:23.588Z,2.87
2018-08-13T21:27:52.294Z,3.27
2018-08-13T21:30:20.895Z,3.30
2018-08-13T21:32:50.324Z,3.77
2018-08-13T21:35:21.727Z,3.20
2018-08-13T21:37:50.485Z,3.67
2018-08-13T21:40:19.119Z,3.40
2018-08-13T21:42:48.178Z,3.37
2018-08-13T21:45:16.744Z,2.97
2018-08-13T21:47:45.395Z,3.20
2018-08-13T21:50:16.637Z,3.27
2018-08-13T21:52:45.830Z,3.17
2018-08-13T21:55:14.504Z,2.97
2018-08-13T21:57:43.127Z,3.00
2018-08-13T22:00:30.585Z,2.70
2018-08-13T22:03:03.113Z,3.07
2018-08-13T22:05:31.831Z,3.03
2018-08-13T22:08:00.611Z,3.07
2018-08-13T22:10:29.233Z,2.63
2018-08-13T22:12:57.845Z,2.77
2018-08-13T22:15:27.680Z,2.63
2018-08-13T22:21:05.872Z,2.17
2018-08-13T22:23:34.508Z,1.30
2018-08-13T22:26:03.093Z,1.30
2018-08-13T22:28:31.715Z,1.00
2018-08-13T22:31:00.273Z,1.00
2018-08-13T22:33:28.840Z,1.20
2018-08-13T22:35:57.388Z,1.73
2018-08-13T22:38:26.047Z,1.80
2018-08-13T22:40:54.600Z,1.70
2018-08-13T22:43:23.160Z,1.10
2018-08-13T22:45:51.770Z,1.80
2018-08-13T22:48:20.317Z,1.80
2018-08-13T22:50:48.876Z,1.70
2018-08-13T22:53:17.416Z,1.63
2018-08-13T22:55:46.036Z,2.10
2018-08-13T22:58:14.592Z,2.00
2018-08-13T23:00:43.159Z,2.30
2018-08-13T23:03:11.752Z,2.53
2018-08-13T23:05:40.295Z,2.50
2018-08-13T23:08:08.914Z,2.80
2018-08-13T23:10:37.549Z,2.37
2018-08-13T23:13:12.498Z,2.17
2018-08-13T23:15:41.067Z,2.23
2018-08-13T23:18:09.678Z,2.77
2018-08-13T23:20:38.280Z,2.40
2018-08-13T23:23:06.877Z,2.40
2018-08-13T23:25:36.568Z,3.10
2018-08-13T23:28:07.591Z,2.30
2018-08-13T23:30:36.170Z,2.57
2018-08-13T23:33:05.592Z,2.90
2018-08-13T23:35:34.231Z,2.53
2018-08-13T23:38:02.987Z,3.03
2018-08-13T23:40:31.620Z,2.57
2018-08-13T23:43:00.262Z,2.83
2018-08-13T23:45:30.543Z,3.53
2018-08-13T23:48:00.046Z,2.90
2018-08-13T23:50:29.930Z,2.83
2018-08-13T23:53:00.762Z,2.60
2018-08-13T23:55:32.264Z,2.87
2018-08-13T23:58:01.061Z,2.60
